Time,TemperatureF,DewpointF,PressureIn,WindDirection,WindDirectionDegrees,WindSpeedMPH,WindSpeedGustMPH,Humidity,HourlyPrecipIn,Conditions,Clouds,dailyrainin,SoftwareType,DateUTC
2013-02-22 00:05:00,18.3,15.6,30.37,NE,52,0.0,0.0,89,0.00,,,0.00,Wunderground v.1.15,2013-02-22 05:05:00,
2013-02-22 00:09:00,18.3,15.6,30.37,NE,52,0.0,0.0,89,0.00,,,0.00,Wunderground v.1.15,2013-02-22 05:09:00,
2013-02-22 00:14:00,18.1,15.7,30.37,NE,52,0.0,0.0,90,0.00,,,0.00,Wunderground v.1.15,2013-02-22 05:14:00,
2013-02-22 00:24:00,18.1,15.7,30.37,NE,52,0.0,0.0,90,0.00,,,0.00,Wunderground v.1.15,2013-02-22 05:24:00,
2013-02-22 00:29:00,18.1,15.7,30.37,NE,52,0.0,0.0,90,0.00,,,0.00,Wunderground v.1.15,2013-02-22 05:29:00,
2013-02-22 00:39:00,18.3,15.9,30.36,NE,52,0.0,0.0,90,0.00,,,0.00,Wunderground v.1.15,2013-02-22 05:39:00,
2013-02-22 00:49:00,18.3,15.9,30.35,NE,52,0.0,0.0,90,0.00,,,0.00,Wunderground v.1.15,2013-02-22 05:49:00,
2013-02-22 00:59:00,18.4,16.0,30.35,NE,52,0.0,0.0,90,0.00,,,0.00,Wunderground v.1.15,2013-02-22 05:59:00,
2013-02-22 01:05:00,18.3,15.9,30.36,NE,52,0.0,0.0,90,0.00,,,0.00,Wunderground v.1.15,2013-02-22 06:05:00,
2013-02-22 01:14:00,18.3,15.9,30.36,NE,52,0.0,0.0,90,0.00,,,0.00,Wunderground v.1.15,2013-02-22 06:14:00,
2013-02-22 01:19:00,18.4,16.0,30.35,NE,52,0.0,0.0,90,0.00,,,0.00,Wunderground v.1.15,2013-02-22 06:19:00,
2013-02-22 01:29:00,18.4,16.0,30.35,NE,52,0.0,0.0,90,0.00,,,0.00,Wunderground v.1.15,2013-02-22 06:29:00,
2013-02-22 01:39:00,18.4,16.0,30.36,NE,52,0.0,0.0,90,0.00,,,0.00,Wunderground v.1.15,2013-02-22 06:39:00,
2013-02-22 01:49:00,18.4,16.0,30.37,NE,52,0.0,0.0,90,0.00,,,0.00,Wunderground v.1.15,2013-02-22 06:49:00,
2013-02-22 01:59:00,18.6,16.2,30.37,NE,52,0.0,0.0,90,0.00,,,0.00,Wunderground v.1.15,2013-02-22 06:59:00,
2013-02-22 02:04:00,18.6,16.2,30.36,NE,52,0.0,0.0,90,0.00,,,0.00,Wunderground v.1.15,2013-02-22 07:04:00,
2013-02-22 02:14:00,18.4,16.0,30.36,NE,52,0.0,0.0,90,0.00,,,0.00,Wunderground v.1.15,2013-02-22 07:14:00,
2013-02-22 02:24:00,18.6,16.2,30.36,NE,52,0.0,0.0,90,0.00,,,0.00,Wunderground v.1.15,2013-02-22 07:24:00,
2013-02-22 02:34:00,18.6,16.2,30.36,NE,52,0.0,0.0,90,0.00,,,0.00,Wunderground v.1.15,2013-02-22 07:34:00,
2013-02-22 02:44:00,18.6,16.2,30.36,NE,52,0.0,0.0,90,0.00,,,0.00,Wunderground v.1.15,2013-02-22 07:44:00,
2013-02-22 02:54:00,18.8,16.4,30.36,NE,52,0.0,0.0,90,0.00,,,0.00,Wunderground v.1.15,2013-02-22 07:54:00,
2013-02-22 03:04:00,18.8,16.4,30.37,NE,52,0.0,0.0,90,0.00,,,0.00,Wunderground v.1.15,2013-02-22 08:04:00,
2013-02-22 03:14:00,18.8,16.4,30.37,NE,52,0.0,0.0,90,0.00,,,0.00,Wunderground v.1.15,2013-02-22 08:14:00,
2013-02-22 03:20:00,18.8,16.4,30.36,NE,52,0.0,0.0,90,0.00,,,0.00,Wunderground v.1.15,2013-02-22 08:20:00,
2013-02-22 03:25:00,18.9,16.5,30.36,NE,52,0.0,0.0,90,0.00,,,0.00,Wunderground v.1.15,2013-02-22 08:25:00,
2013-02-22 03:35:00,18.9,16.5,30.36,NE,52,0.0,0.0,90,0.00,,,0.00,Wunderground v.1.15,2013-02-22 08:35:00,
2013-02-22 03:45:00,18.9,16.5,30.36,NE,52,0.0,0.0,90,0.00,,,0.00,Wunderground v.1.15,2013-02-22 08:45:00,
2013-02-22 03:50:00,18.9,16.5,30.36,NE,52,0.0,0.0,90,0.00,,,0.00,Wunderground v.1.15,2013-02-22 08:50:00,
2013-02-22 04:00:00,18.9,16.5,30.36,NE,52,0.0,0.0,90,0.00,,,0.00,Wunderground v.1.15,2013-02-22 09:00:00,
2013-02-22 04:05:00,18.9,16.5,30.36,NE,52,0.0,0.0,90,0.00,,,0.00,Wunderground v.1.15,2013-02-22 09:05:00,
2013-02-22 04:15:00,19.1,16.7,30.36,NE,52,0.0,0.0,90,0.00,,,0.00,Wunderground v.1.15,2013-02-22 09:15:00,
2013-02-22 04:24:00,18.9,16.5,30.36,NE,52,0.0,0.0,90,0.00,,,0.00,Wunderground v.1.15,2013-02-22 09:24:00,
2013-02-22 04:30:00,18.9,16.5,30.36,NE,52,0.0,0.0,90,0.00,,,0.00,Wunderground v.1.15,2013-02-22 09:30:00,
2013-02-22 04:40:00,18.6,16.2,30.34,NE,52,0.0,0.0,90,0.00,,,0.00,Wunderground v.1.15,2013-02-22 09:40:00,
2013-02-22 04:49:00,18.3,15.9,30.33,NE,52,0.0,0.0,90,0.00,,,0.00,Wunderground v.1.15,2013-02-22 09:49:00,
2013-02-22 04:55:00,18.1,15.7,30.33,NE,52,0.0,0.0,90,0.00,,,0.00,Wunderground v.1.15,2013-02-22 09:55:00,
2013-02-22 05:05:00,18.0,15.6,30.33,NE,52,0.0,0.0,90,0.00,,,0.00,Wunderground v.1.15,2013-02-22 10:05:00,
2013-02-22 05:15:00,17.8,15.4,30.33,NE,52,0.0,0.0,90,0.00,,,0.00,Wunderground v.1.15,2013-02-22 10:15:00,
2013-02-22 05:25:00,17.3,14.9,30.33,NE,52,0.0,0.0,90,0.00,,,0.00,Wunderground v.1.15,2013-02-22 10:25:00,
2013-02-22 05:35:00,17.0,14.6,30.35,NE,52,0.0,0.0,90,0.00,,,0.00,Wunderground v.1.15,2013-02-22 10:35:00,
2013-02-22 05:40:00,16.7,14.0,30.35,NE,52,0.0,0.0,89,0.00,,,0.00,Wunderground v.1.15,2013-02-22 10:40:00,
2013-02-22 05:50:00,16.2,13.8,30.36,NE,52,0.0,0.0,90,0.00,,,0.00,Wunderground v.1.15,2013-02-22 10:50:00,
2013-02-22 05:59:00,16.5,14.1,30.36,NE,52,0.0,0.0,90,0.00,,,0.00,Wunderground v.1.15,2013-02-22 10:59:00,
2013-02-22 06:05:00,16.2,13.8,30.35,NE,52,0.0,0.0,90,0.00,,,0.00,Wunderground v.1.15,2013-02-22 11:05:00,
2013-02-22 06:14:00,16.5,14.3,30.35,NE,52,0.0,0.0,91,0.00,,,0.00,Wunderground v.1.15,2013-02-22 11:14:00,
2013-02-22 06:20:00,16.5,14.1,30.36,NE,52,0.0,0.0,90,0.00,,,0.00,Wunderground v.1.15,2013-02-22 11:20:00,
2013-02-22 06:34:00,16.7,14.5,30.36,NE,52,0.0,0.0,91,0.00,,,0.00,Wunderground v.1.15,2013-02-22 11:34:00,
2013-02-22 06:40:00,17.2,15.0,30.36,NE,52,0.0,0.0,91,0.00,,,0.00,Wunderground v.1.15,2013-02-22 11:40:00,
2013-02-22 06:50:00,17.7,15.5,30.37,NE,52,0.0,0.0,91,0.00,,,0.00,Wunderground v.1.15,2013-02-22 11:50:00,
2013-02-22 06:59:00,18.4,16.5,30.37,NE,52,0.0,0.0,92,0.00,,,0.00,Wunderground v.1.15,2013-02-22 11:59:00,
2013-02-22 07:05:00,18.8,16.9,30.37,NE,52,0.0,0.0,92,0.00,,,0.00,Wunderground v.1.15,2013-02-22 12:05:00,
2013-02-22 07:15:00,19.1,17.2,30.37,NE,52,0.0,0.0,92,0.00,,,0.00,Wunderground v.1.15,2013-02-22 12:15:00,
2013-02-22 07:25:00,19.2,17.3,30.36,NE,52,0.0,0.0,92,0.00,,,0.00,Wunderground v.1.15,2013-02-22 12:25:00,
2013-02-22 07:34:00,19.4,17.5,30.36,NE,52,0.0,0.0,92,0.00,,,0.00,Wunderground v.1.15,2013-02-22 12:34:00,
2013-02-22 07:40:00,19.4,17.2,30.36,NE,52,0.0,0.0,91,0.00,,,0.00,Wunderground v.1.15,2013-02-22 12:40:00,
2013-02-22 07:50:00,19.2,17.0,30.36,NE,53,0.0,0.0,91,0.00,,,0.00,Wunderground v.1.15,2013-02-22 12:50:00,
2013-02-22 07:59:00,19.2,17.0,30.36,ENE,63,0.0,0.0,91,0.00,,,0.00,Wunderground v.1.15,2013-02-22 12:59:00,
2013-02-22 08:05:00,19.2,16.7,30.34,ENE,63,0.0,0.0,90,0.00,,,0.00,Wunderground v.1.15,2013-02-22 13:05:00,
2013-02-22 08:14:00,19.4,16.9,30.34,SE,142,0.0,0.0,90,0.00,,,0.00,Wunderground v.1.15,2013-02-22 13:14:00,
2013-02-22 08:20:00,19.5,17.0,30.34,SSE,147,0.0,0.0,90,0.00,,,0.00,Wunderground v.1.15,2013-02-22 13:20:00,
2013-02-22 08:29:00,19.7,17.2,30.34,South,190,0.0,0.0,90,0.00,,,0.00,Wunderground v.1.15,2013-02-22 13:29:00,
2013-02-22 08:34:00,19.9,17.4,30.33,South,190,0.0,0.0,90,0.00,,,0.00,Wunderground v.1.15,2013-02-22 13:34:00,
2013-02-22 08:44:00,20.0,17.5,30.33,SSE,161,0.0,0.0,90,0.00,,,0.00,Wunderground v.1.15,2013-02-22 13:44:00,
2013-02-22 08:55:00,20.2,17.7,30.32,SSW,211,0.0,0.0,90,0.00,,,0.00,Wunderground v.1.15,2013-02-22 13:55:00,
2013-02-22 09:05:00,20.5,18.0,30.32,South,177,0.0,0.0,90,0.00,,,0.00,Wunderground v.1.15,2013-02-22 14:05:00,
2013-02-22 09:14:00,20.8,18.1,30.32,SSW,200,0.0,0.0,89,0.00,,,0.00,Wunderground v.1.15,2013-02-22 14:14:00,
2013-02-22 09:25:00,21.1,18.4,30.31,South,186,0.0,0.0,89,0.00,,,0.00,Wunderground v.1.15,2013-02-22 14:25:00,
2013-02-22 09:34:00,21.3,18.3,30.31,South,186,0.0,0.0,88,0.00,,,0.00,Wunderground v.1.15,2013-02-22 14:34:00,
2013-02-22 09:44:00,21.8,18.5,30.31,SSW,212,0.0,0.0,87,0.00,,,0.00,Wunderground v.1.15,2013-02-22 14:44:00,
2013-02-22 09:50:00,21.9,18.6,30.32,SSW,207,0.0,0.0,87,0.00,,,0.00,Wunderground v.1.15,2013-02-22 14:50:00,
2013-02-22 09:59:00,22.4,18.8,30.32,SSW,198,0.0,0.0,86,0.00,,,0.00,Wunderground v.1.15,2013-02-22 14:59:00,
2013-02-22 10:05:00,22.7,19.1,30.32,South,190,0.0,0.0,86,0.00,,,0.00,Wunderground v.1.15,2013-02-22 15:05:00,
2013-02-22 10:14:00,23.3,19.5,30.32,South,180,0.0,0.0,85,0.00,,,0.00,Wunderground v.1.15,2013-02-22 15:14:00,
2013-02-22 10:24:00,23.6,19.2,30.30,South,184,0.0,0.0,83,0.00,,,0.00,Wunderground v.1.15,2013-02-22 15:24:00,
2013-02-22 10:30:00,23.9,19.5,30.30,South,184,0.0,0.0,83,0.00,,,0.00,Wunderground v.1.15,2013-02-22 15:30:00,
2013-02-22 10:39:00,25.0,20.3,30.29,South,183,0.0,0.0,82,0.00,,,0.00,Wunderground v.1.15,2013-02-22 15:39:00,
2013-02-22 10:49:00,25.6,20.3,30.28,South,182,0.0,0.0,80,0.00,,,0.00,Wunderground v.1.15,2013-02-22 15:49:00,
2013-02-22 10:55:00,25.7,20.1,30.28,SE,141,0.0,0.0,79,0.00,,,0.00,Wunderground v.1.15,2013-02-22 15:55:00,
2013-02-22 11:05:00,26.4,20.5,30.26,South,180,0.0,0.0,78,0.00,,,0.00,Wunderground v.1.15,2013-02-22 16:05:00,
2013-02-22 11:14:00,26.7,20.1,30.26,SSW,196,0.0,0.0,76,0.00,,,0.00,Wunderground v.1.15,2013-02-22 16:14:00,
2013-02-22 11:24:00,27.3,20.4,30.25,South,190,0.0,0.0,75,0.00,,,0.00,Wunderground v.1.15,2013-02-22 16:24:00,
2013-02-22 11:35:00,27.6,20.7,30.24,SSW,200,0.0,0.0,75,0.00,,,0.00,Wunderground v.1.15,2013-02-22 16:35:00,
2013-02-22 11:44:00,28.2,21.0,30.24,South,182,0.0,0.0,74,0.00,,,0.00,Wunderground v.1.15,2013-02-22 16:44:00,
2013-02-22 11:54:00,28.8,21.6,30.23,SSW,204,0.0,0.0,74,0.00,,,0.00,Wunderground v.1.15,2013-02-22 16:54:00,
2013-02-22 12:00:00,29.0,21.4,30.23,SSW,194,0.0,0.0,73,0.00,,,0.00,Wunderground v.1.15,2013-02-22 17:00:00,
2013-02-22 12:05:00,29.1,21.2,30.22,SSW,196,0.0,0.0,72,0.00,,,0.00,Wunderground v.1.15,2013-02-22 17:05:00,
2013-02-22 12:14:00,29.4,21.5,30.22,SSE,163,0.0,0.0,72,0.00,,,0.00,Wunderground v.1.15,2013-02-22 17:14:00,
2013-02-22 12:24:00,29.8,21.9,30.20,SSW,203,0.0,0.0,72,0.00,,,0.00,Wunderground v.1.15,2013-02-22 17:24:00,
2013-02-22 12:34:00,30.1,21.2,30.19,South,180,0.0,0.0,69,0.00,,,0.00,Wunderground v.1.15,2013-02-22 17:34:00,
2013-02-22 12:39:00,30.4,21.8,30.19,South,180,0.0,0.0,70,0.00,,,0.00,Wunderground v.1.15,2013-02-22 17:39:00,
2013-02-22 12:49:00,30.6,21.6,30.18,South,179,0.0,0.0,69,0.00,,,0.00,Wunderground v.1.15,2013-02-22 17:49:00,
2013-02-22 12:59:00,30.7,21.4,30.18,South,180,0.0,0.0,68,0.00,,,0.00,Wunderground v.1.15,2013-02-22 17:59:00,
2013-02-22 13:05:00,30.7,21.4,30.17,SSW,206,0.0,0.0,68,0.00,,,0.00,Wunderground v.1.15,2013-02-22 18:05:00,
2013-02-22 13:14:00,31.0,21.7,30.17,SSW,200,0.0,0.0,68,0.00,,,0.00,Wunderground v.1.15,2013-02-22 18:14:00,
2013-02-22 13:24:00,31.5,21.8,30.16,SSW,208,0.0,0.0,67,0.00,,,0.00,Wunderground v.1.15,2013-02-22 18:24:00,
2013-02-22 13:34:00,31.8,22.1,30.15,South,175,0.0,0.0,67,0.00,,,0.00,Wunderground v.1.15,2013-02-22 18:34:00,
2013-02-22 13:39:00,32.2,21.4,30.15,SSE,166,0.0,0.0,64,0.00,,,0.00,Wunderground v.1.15,2013-02-22 18:39:00,
2013-02-22 13:49:00,32.8,21.6,30.14,SSW,194,0.0,0.0,63,0.00,,,0.00,Wunderground v.1.15,2013-02-22 18:49:00,
2013-02-22 13:59:00,32.5,21.7,30.14,SSW,200,0.0,0.0,64,0.00,,,0.00,Wunderground v.1.15,2013-02-22 18:59:00,
2013-02-22 14:04:00,32.7,22.2,30.14,SW,220,0.0,0.0,65,0.00,,,0.00,Wunderground v.1.15,2013-02-22 19:04:00,
2013-02-22 14:14:00,32.8,21.6,30.14,South,189,0.0,0.0,63,0.00,,,0.00,Wunderground v.1.15,2013-02-22 19:14:00,
2013-02-22 14:19:00,32.9,21.7,30.15,SSW,204,0.0,0.0,63,0.00,,,0.00,Wunderground v.1.15,2013-02-22 19:19:00,
2013-02-22 14:29:00,33.2,22.0,30.15,WSW,256,0.0,0.0,63,0.00,,,0.00,Wunderground v.1.15,2013-02-22 19:29:00,
2013-02-22 14:39:00,33.4,22.1,30.15,SSW,202,0.0,0.0,63,0.00,,,0.00,Wunderground v.1.15,2013-02-22 19:39:00,
2013-02-22 14:49:00,33.4,21.8,30.14,SSW,204,0.0,0.0,62,0.00,,,0.00,Wunderground v.1.15,2013-02-22 19:49:00,
2013-02-22 14:59:00,33.4,22.1,30.14,SW,214,0.0,0.0,63,0.00,,,0.00,Wunderground v.1.15,2013-02-22 19:59:00,
2013-02-22 15:04:00,33.5,22.2,30.14,SSW,213,0.0,0.0,63,0.00,,,0.00,Wunderground v.1.15,2013-02-22 20:04:00,
2013-02-22 15:14:00,33.7,21.7,30.14,SW,216,0.0,0.0,61,0.00,,,0.00,Wunderground v.1.15,2013-02-22 20:14:00,
2013-02-22 15:24:00,33.8,21.4,30.14,WSW,238,0.0,0.0,60,0.00,,,0.00,Wunderground v.1.15,2013-02-22 20:24:00,
2013-02-22 15:34:00,33.8,22.1,30.13,SSW,211,0.0,0.0,62,0.00,,,0.00,Wunderground v.1.15,2013-02-22 20:34:00,
2013-02-22 15:44:00,33.8,22.1,30.13,SSW,211,0.0,0.0,62,0.00,,,0.00,Wunderground v.1.15,2013-02-22 20:44:00,
2013-02-22 15:54:00,34.0,22.0,30.13,SW,218,0.0,0.0,61,0.00,,,0.00,Wunderground v.1.15,2013-02-22 20:54:00,
2013-02-22 16:04:00,33.8,22.5,30.12,SSE,165,0.0,0.0,63,0.00,,,0.00,Wunderground v.1.15,2013-02-22 21:04:00,
2013-02-22 16:14:00,34.0,22.7,30.12,SSW,211,0.0,0.0,63,0.00,,,0.00,Wunderground v.1.15,2013-02-22 21:14:00,
2013-02-22 16:24:00,34.3,22.6,30.11,SSW,198,0.0,0.0,62,0.00,,,0.00,Wunderground v.1.15,2013-02-22 21:24:00,
2013-02-22 16:34:00,34.3,22.2,30.11,SSW,194,0.0,0.0,61,0.00,,,0.00,Wunderground v.1.15,2013-02-22 21:34:00,
2013-02-22 16:44:00,34.1,22.0,30.11,South,186,0.0,0.0,61,0.00,,,0.00,Wunderground v.1.15,2013-02-22 21:44:00,
2013-02-22 16:54:00,34.0,23.1,30.11,South,178,0.0,0.0,64,0.00,,,0.00,Wunderground v.1.15,2013-02-22 21:54:00,
2013-02-22 17:04:00,33.7,23.2,30.11,South,174,0.0,0.0,65,0.00,,,0.00,Wunderground v.1.15,2013-02-22 22:04:00,
2013-02-22 17:14:00,33.4,24.0,30.11,SSW,199,0.0,0.0,68,0.00,,,0.00,Wunderground v.1.15,2013-02-22 22:14:00,
2013-02-22 17:24:00,33.2,23.8,30.11,SSW,208,0.0,0.0,68,0.00,,,0.00,Wunderground v.1.15,2013-02-22 22:24:00,
2013-02-22 17:34:00,33.5,23.4,30.11,SSW,198,0.0,0.0,66,0.00,,,0.00,Wunderground v.1.15,2013-02-22 22:34:00,
2013-02-22 17:44:00,33.5,23.7,30.11,South,189,0.0,0.0,67,0.00,,,0.00,Wunderground v.1.15,2013-02-22 22:44:00,
2013-02-22 17:54:00,33.5,23.7,30.10,SSW,209,0.0,0.0,67,0.00,,,0.00,Wunderground v.1.15,2013-02-22 22:54:00,
2013-02-22 18:04:00,33.7,23.5,30.10,SW,226,0.0,0.0,66,0.00,,,0.00,Wunderground v.1.15,2013-02-22 23:04:00,
2013-02-22 18:14:00,33.8,22.9,30.10,SW,229,0.0,0.0,64,0.00,,,0.00,Wunderground v.1.15,2013-02-22 23:14:00,
2013-02-22 18:24:00,33.8,22.5,30.10,SW,229,0.0,0.0,63,0.00,,,0.00,Wunderground v.1.15,2013-02-22 23:24:00,
2013-02-22 18:29:00,33.8,22.5,30.10,South,185,0.0,0.0,63,0.00,,,0.00,Wunderground v.1.15,2013-02-22 23:29:00,
2013-02-22 18:39:00,33.5,23.0,30.10,SSW,203,0.0,0.0,65,0.00,,,0.00,Wunderground v.1.15,2013-02-22 23:39:00,
2013-02-22 18:49:00,33.4,22.9,30.09,WSW,238,0.0,0.0,65,0.00,,,0.00,Wunderground v.1.15,2013-02-22 23:49:00,
2013-02-22 18:54:00,33.4,22.9,30.09,SSW,201,0.0,0.0,65,0.00,,,0.00,Wunderground v.1.15,2013-02-22 23:54:00,
2013-02-22 19:04:00,33.2,22.7,30.09,SSW,209,0.0,0.0,65,0.00,,,0.00,Wunderground v.1.15,2013-02-23 00:04:00,
2013-02-22 19:14:00,33.1,23.0,30.09,SSW,212,0.0,0.0,66,0.00,,,0.00,Wunderground v.1.15,2013-02-23 00:14:00,
2013-02-22 19:24:00,32.8,22.7,30.09,South,186,0.0,0.0,66,0.00,,,0.00,Wunderground v.1.15,2013-02-23 00:24:00,
2013-02-22 19:29:00,32.8,22.7,30.09,SSW,206,0.0,0.0,66,0.00,,,0.00,Wunderground v.1.15,2013-02-23 00:29:00,
2013-02-22 19:39:00,32.7,22.9,30.10,South,179,0.0,0.0,67,0.00,,,0.00,Wunderground v.1.15,2013-02-23 00:39:00,
2013-02-22 19:49:00,32.5,23.1,30.10,SW,217,0.0,0.0,68,0.00,,,0.00,Wunderground v.1.15,2013-02-23 00:49:00,
2013-02-22 19:54:00,32.4,23.0,30.10,South,176,0.0,0.0,68,0.00,,,0.00,Wunderground v.1.15,2013-02-23 00:54:00,
2013-02-22 20:04:00,32.2,23.2,30.10,SW,217,0.0,0.0,69,0.00,,,0.00,Wunderground v.1.15,2013-02-23 01:04:00,
2013-02-22 20:14:00,32.1,23.1,30.10,SSW,198,0.0,0.0,69,0.00,,,0.00,Wunderground v.1.15,2013-02-23 01:14:00,
2013-02-22 20:24:00,32.1,23.4,30.10,SSW,200,0.0,0.0,70,0.00,,,0.00,Wunderground v.1.15,2013-02-23 01:24:00,
2013-02-22 20:29:00,32.1,23.4,30.10,SSW,200,0.0,0.0,70,0.00,,,0.00,Wunderground v.1.15,2013-02-23 01:29:00,
2013-02-22 20:39:00,32.1,23.4,30.09,SSW,208,0.0,0.0,70,0.00,,,0.00,Wunderground v.1.15,2013-02-23 01:39:00,
2013-02-22 20:49:00,31.9,23.2,30.09,SSW,193,0.0,0.0,70,0.00,,,0.00,Wunderground v.1.15,2013-02-23 01:49:00,
2013-02-22 20:59:00,31.9,23.6,30.09,SSW,194,0.0,0.0,71,0.00,,,0.00,Wunderground v.1.15,2013-02-23 01:59:00,
2013-02-22 21:04:00,31.9,23.6,30.09,SW,225,0.0,0.0,71,0.00,,,0.00,Wunderground v.1.15,2013-02-23 02:04:00,
2013-02-22 21:14:00,31.9,23.6,30.09,SW,223,0.0,0.0,71,0.00,,,0.00,Wunderground v.1.15,2013-02-23 02:14:00,
2013-02-22 21:24:00,31.9,23.6,30.10,SSW,200,0.0,0.0,71,0.00,,,0.00,Wunderground v.1.15,2013-02-23 02:24:00,
2013-02-22 21:34:00,31.9,23.6,30.10,SW,236,0.0,0.0,71,0.00,,,0.00,Wunderground v.1.15,2013-02-23 02:34:00,
2013-02-22 21:44:00,31.9,23.9,30.10,WSW,247,0.0,0.0,72,0.00,,,0.00,Wunderground v.1.15,2013-02-23 02:44:00,
2013-02-22 21:54:00,31.9,23.9,30.10,South,188,0.0,0.0,72,0.00,,,0.00,Wunderground v.1.15,2013-02-23 02:54:00,
2013-02-22 22:04:00,31.9,23.9,30.09,SSW,194,0.0,0.0,72,0.00,,,0.00,Wunderground v.1.15,2013-02-23 03:04:00,
2013-02-22 22:14:00,31.8,23.8,30.09,SSW,203,0.0,0.0,72,0.00,,,0.00,Wunderground v.1.15,2013-02-23 03:14:00,
2013-02-22 22:24:00,31.8,23.8,30.09,South,178,0.0,0.0,72,0.00,,,0.00,Wunderground v.1.15,2013-02-23 03:24:00,
2013-02-22 22:34:00,31.6,23.9,30.09,SSW,211,0.0,0.0,73,0.00,,,0.00,Wunderground v.1.15,2013-02-23 03:34:00,
2013-02-22 22:39:00,31.5,23.8,30.09,South,181,0.0,0.0,73,0.00,,,0.00,Wunderground v.1.15,2013-02-23 03:39:00,
2013-02-22 22:49:00,31.2,23.5,30.07,WSW,240,0.0,0.0,73,0.00,,,0.00,Wunderground v.1.15,2013-02-23 03:49:00,
2013-02-22 22:59:00,30.9,23.9,30.07,SSW,210,0.0,0.0,75,0.00,,,0.00,Wunderground v.1.15,2013-02-23 03:59:00,
2013-02-22 23:04:00,30.7,24.0,30.07,SW,232,0.0,0.0,76,0.00,,,0.00,Wunderground v.1.15,2013-02-23 04:04:00,
2013-02-22 23:14:00,30.6,24.2,30.07,SSW,193,0.0,0.0,77,0.00,,,0.00,Wunderground v.1.15,2013-02-23 04:14:00,
2013-02-22 23:19:00,30.6,24.2,30.05,South,189,0.0,0.0,77,0.00,,,0.00,Wunderground v.1.15,2013-02-23 04:19:00,
2013-02-22 23:29:00,30.4,24.4,30.05,SSW,207,0.0,0.0,78,0.00,,,0.00,Wunderground v.1.15,2013-02-23 04:29:00,
2013-02-22 23:39:00,30.3,24.3,30.05,SSW,196,0.0,0.0,78,0.00,,,0.00,Wunderground v.1.15,2013-02-23 04:39:00,
2013-02-22 23:49:00,30.6,24.2,30.04,South,188,0.0,0.0,77,0.00,,,0.00,Wunderground v.1.15,2013-02-23 04:49:00,
2013-02-22 23:59:00,30.9,24.2,30.04,SW,217,0.0,0.0,76,0.00,,,0.00,Wunderground v.1.15,2013-02-23 04:59:00,